<?xml version="1.0" encoding="UTF-8"?>
<gpx xmlns="http://www.topografix.com/GPX/1/1" xmlns:gpsies="http://www.gpsies.com/GPX/1/0" creator="GPSies http://www.gpsies.com - Stuttgarter Rundwanderweg" version="1.1" xmlns:xsi="http://www.w3.org/2001/XMLSchema-instance" xsi:schemaLocation="http://www.topografix.com/GPX/1/1 http://www.topografix.com/GPX/1/1/gpx.xsd http://www.gpsies.com/GPX/1/0 http://www.gpsies.com/gpsies.xsd">
  <metadata>
    <name>Stuttgarter Rundwanderweg</name>
    <link href="http://www.gpsies.com/">
      <text>Stuttgarter Rundwanderweg on GPSies.com</text>
    </link>
    <time>2015-05-23T19:16:15Z</time>
  </metadata>
  <trk>
    <name>Stuttgarter Rundwanderweg on GPSies.com</name>
    <trkseg>
      <trkpt lat="48.78225000" lon="9.263830000">
        <ele>322.00000</ele>
        <time>2010-01-01T00:00:00Z</time>
      </trkpt>
      <trkpt lat="48.78104000" lon="9.263250000">
        <ele>305.00000</ele>
        <time>2010-01-01T00:00:50Z</time>
      </trkpt>
      <trkpt lat="48.78035000" lon="9.263650000">
        <ele>309.00000</ele>
        <time>2010-01-01T00:01:20Z</time>
      </trkpt>
      <trkpt lat="48.77992000" lon="9.263760000">
        <ele>313.00000</ele>
        <time>2010-01-01T00:01:37Z</time>
      </trkpt>
      <trkpt lat="48.77891000" lon="9.263220000">
        <ele>320.00000</ele>
        <time>2010-01-01T00:02:20Z</time>
      </trkpt>
      <trkpt lat="48.77774000" lon="9.262060000">
        <ele>313.00000</ele>
        <time>2010-01-01T00:03:16Z</time>
      </trkpt>
      <trkpt lat="48.77726000" lon="9.261840000">
        <ele>324.00000</ele>
        <time>2010-01-01T00:03:36Z</time>
      </trkpt>
      <trkpt lat="48.77687000" lon="9.261950000">
        <ele>326.00000</ele>
        <time>2010-01-01T00:03:52Z</time>
      </trkpt>
      <trkpt lat="48.77643000" lon="9.262380000">
        <ele>323.00000</ele>
        <time>2010-01-01T00:04:13Z</time>
      </trkpt>
      <trkpt lat="48.77465000" lon="9.264800000">
        <ele>320.00000</ele>
        <time>2010-01-01T00:05:49Z</time>
      </trkpt>
      <trkpt lat="48.77434000" lon="9.265670000">
        <ele>325.00000</ele>
        <time>2010-01-01T00:06:15Z</time>
      </trkpt>
      <trkpt lat="48.77333000" lon="9.266410000">
        <ele>315.00000</ele>
        <time>2010-01-01T00:07:00Z</time>
      </trkpt>
      <trkpt lat="48.77255000" lon="9.265620000">
        <ele>282.00000</ele>
        <time>2010-01-01T00:07:37Z</time>
      </trkpt>
      <trkpt lat="48.77210000" lon="9.266010000">
        <ele>279.00000</ele>
        <time>2010-01-01T00:07:58Z</time>
      </trkpt>
      <trkpt lat="48.76949000" lon="9.267450000">
        <ele>264.00000</ele>
        <time>2010-01-01T00:09:49Z</time>
      </trkpt>
      <trkpt lat="48.76888000" lon="9.267600000">
        <ele>271.00000</ele>
        <time>2010-01-01T00:10:14Z</time>
      </trkpt>
      <trkpt lat="48.76822000" lon="9.268300000">
        <ele>271.00000</ele>
        <time>2010-01-01T00:10:46Z</time>
      </trkpt>
      <trkpt lat="48.76741000" lon="9.268750000">
        <ele>257.00000</ele>
        <time>2010-01-01T00:11:21Z</time>
      </trkpt>
      <trkpt lat="48.76739000" lon="9.268910000">
        <ele>263.00000</ele>
        <time>2010-01-01T00:11:25Z</time>
      </trkpt>
      <trkpt lat="48.76668000" lon="9.269790000">
        <ele>251.00000</ele>
        <time>2010-01-01T00:12:02Z</time>
      </trkpt>
      <trkpt lat="48.76642000" lon="9.269860000">
        <ele>246.00000</ele>
        <time>2010-01-01T00:12:12Z</time>
      </trkpt>
      <trkpt lat="48.76629000" lon="9.270100000">
        <ele>247.00000</ele>
        <time>2010-01-01T00:12:20Z</time>
      </trkpt>
      <trkpt lat="48.76625000" lon="9.269650000">
        <ele>242.00000</ele>
        <time>2010-01-01T00:12:32Z</time>
      </trkpt>
      <trkpt lat="48.76552000" lon="9.266370000">
        <ele>228.00000</ele>
        <time>2010-01-01T00:14:04Z</time>
      </trkpt>
      <trkpt lat="48.76484000" lon="9.266970000">
        <ele>228.00000</ele>
        <time>2010-01-01T00:14:35Z</time>
      </trkpt>
      <trkpt lat="48.76448000" lon="9.267030000">
        <ele>230.00000</ele>
        <time>2010-01-01T00:14:50Z</time>
      </trkpt>
      <trkpt lat="48.76426000" lon="9.266890000">
        <ele>234.00000</ele>
        <time>2010-01-01T00:14:59Z</time>
      </trkpt>
      <trkpt lat="48.76061000" lon="9.256790000">
        <ele>231.00000</ele>
        <time>2010-01-01T00:20:03Z</time>
      </trkpt>
      <trkpt lat="48.75969000" lon="9.254760000">
        <ele>231.00000</ele>
        <time>2010-01-01T00:21:08Z</time>
      </trkpt>
      <trkpt lat="48.75881000" lon="9.255350000">
        <ele>232.00000</ele>
        <time>2010-01-01T00:21:47Z</time>
      </trkpt>
      <trkpt lat="48.75850000" lon="9.255300000">
        <ele>232.00000</ele>
        <time>2010-01-01T00:21:59Z</time>
      </trkpt>
      <trkpt lat="48.75850000" lon="9.254230000">
        <ele>232.00000</ele>
        <time>2010-01-01T00:22:27Z</time>
      </trkpt>
      <trkpt lat="48.75839000" lon="9.253970000">
        <ele>232.00000</ele>
        <time>2010-01-01T00:22:36Z</time>
      </trkpt>
      <trkpt lat="48.75852000" lon="9.253830000">
        <ele>233.00000</ele>
        <time>2010-01-01T00:22:42Z</time>
      </trkpt>
      <trkpt lat="48.75848000" lon="9.253340000">
        <ele>235.00000</ele>
        <time>2010-01-01T00:22:55Z</time>
      </trkpt>
      <trkpt lat="48.75823000" lon="9.252610000">
        <ele>242.00000</ele>
        <time>2010-01-01T00:23:17Z</time>
      </trkpt>
      <trkpt lat="48.75822000" lon="9.251640000">
        <ele>254.00000</ele>
        <time>2010-01-01T00:23:42Z</time>
      </trkpt>
      <trkpt lat="48.75845000" lon="9.252210000">
        <ele>254.00000</ele>
        <time>2010-01-01T00:24:00Z</time>
      </trkpt>
      <trkpt lat="48.75869000" lon="9.252520000">
        <ele>255.00000</ele>
        <time>2010-01-01T00:24:13Z</time>
      </trkpt>
      <trkpt lat="48.75929000" lon="9.252650000">
        <ele>262.00000</ele>
        <time>2010-01-01T00:24:37Z</time>
      </trkpt>
      <trkpt lat="48.75942000" lon="9.252580000">
        <ele>262.00000</ele>
        <time>2010-01-01T00:24:42Z</time>
      </trkpt>
      <trkpt lat="48.76043000" lon="9.251100000">
        <ele>285.00000</ele>
        <time>2010-01-01T00:25:39Z</time>
      </trkpt>
      <trkpt lat="48.76038000" lon="9.250660000">
        <ele>289.00000</ele>
        <time>2010-01-01T00:25:50Z</time>
      </trkpt>
      <trkpt lat="48.76063000" lon="9.250210000">
        <ele>291.00000</ele>
        <time>2010-01-01T00:26:06Z</time>
      </trkpt>
      <trkpt lat="48.76125000" lon="9.249660000">
        <ele>293.00000</ele>
        <time>2010-01-01T00:26:35Z</time>
      </trkpt>
      <trkpt lat="48.76210000" lon="9.248640000">
        <ele>305.00000</ele>
        <time>2010-01-01T00:27:18Z</time>
      </trkpt>
      <trkpt lat="48.76160000" lon="9.248740000">
        <ele>307.00000</ele>
        <time>2010-01-01T00:27:38Z</time>
      </trkpt>
      <trkpt lat="48.75984000" lon="9.249560000">
        <ele>325.00000</ele>
        <time>2010-01-01T00:28:52Z</time>
      </trkpt>
      <trkpt lat="48.75978000" lon="9.249410000">
        <ele>330.00000</ele>
        <time>2010-01-01T00:28:57Z</time>
      </trkpt>
      <trkpt lat="48.76004000" lon="9.247730000">
        <ele>339.00000</ele>
        <time>2010-01-01T00:29:42Z</time>
      </trkpt>
      <trkpt lat="48.76041000" lon="9.246780000">
        <ele>346.00000</ele>
        <time>2010-01-01T00:30:11Z</time>
      </trkpt>
      <trkpt lat="48.76013000" lon="9.245500000">
        <ele>342.00000</ele>
        <time>2010-01-01T00:30:47Z</time>
      </trkpt>
      <trkpt lat="48.76023000" lon="9.244600000">
        <ele>340.00000</ele>
        <time>2010-01-01T00:31:11Z</time>
      </trkpt>
      <trkpt lat="48.76068000" lon="9.243680000">
        <ele>344.00000</ele>
        <time>2010-01-01T00:31:41Z</time>
      </trkpt>
      <trkpt lat="48.76076000" lon="9.242910000">
        <ele>344.00000</ele>
        <time>2010-01-01T00:32:02Z</time>
      </trkpt>
      <trkpt lat="48.76066000" lon="9.242460000">
        <ele>346.00000</ele>
        <time>2010-01-01T00:32:14Z</time>
      </trkpt>
      <trkpt lat="48.76025000" lon="9.241620000">
        <ele>334.00000</ele>
        <time>2010-01-01T00:32:42Z</time>
      </trkpt>
      <trkpt lat="48.76021000" lon="9.241330000">
        <ele>336.00000</ele>
        <time>2010-01-01T00:32:50Z</time>
      </trkpt>
      <trkpt lat="48.76040000" lon="9.240490000">
        <ele>336.00000</ele>
        <time>2010-01-01T00:33:13Z</time>
      </trkpt>
      <trkpt lat="48.76056000" lon="9.240340000">
        <ele>337.00000</ele>
        <time>2010-01-01T00:33:21Z</time>
      </trkpt>
      <trkpt lat="48.76109000" lon="9.240360000">
        <ele>338.00000</ele>
        <time>2010-01-01T00:33:42Z</time>
      </trkpt>
      <trkpt lat="48.76160000" lon="9.240980000">
        <ele>347.00000</ele>
        <time>2010-01-01T00:34:08Z</time>
      </trkpt>
      <trkpt lat="48.76185000" lon="9.241050000">
        <ele>345.00000</ele>
        <time>2010-01-01T00:34:18Z</time>
      </trkpt>
      <trkpt lat="48.76220000" lon="9.241610000">
        <ele>353.00000</ele>
        <time>2010-01-01T00:34:38Z</time>
      </trkpt>
      <trkpt lat="48.76291000" lon="9.242340000">
        <ele>371.00000</ele>
        <time>2010-01-01T00:35:13Z</time>
      </trkpt>
      <trkpt lat="48.76316000" lon="9.241520000">
        <ele>371.00000</ele>
        <time>2010-01-01T00:35:37Z</time>
      </trkpt>
      <trkpt lat="48.76394000" lon="9.240770000">
        <ele>372.00000</ele>
        <time>2010-01-01T00:36:14Z</time>
      </trkpt>
      <trkpt lat="48.76433000" lon="9.240750000">
        <ele>372.00000</ele>
        <time>2010-01-01T00:36:29Z</time>
      </trkpt>
      <trkpt lat="48.76498000" lon="9.240140000">
        <ele>376.00000</ele>
        <time>2010-01-01T00:37:00Z</time>
      </trkpt>
      <trkpt lat="48.76582000" lon="9.238480000">
        <ele>384.00000</ele>
        <time>2010-01-01T00:37:55Z</time>
      </trkpt>
      <trkpt lat="48.76673000" lon="9.236210000">
        <ele>387.00000</ele>
        <time>2010-01-01T00:39:05Z</time>
      </trkpt>
      <trkpt lat="48.76914000" lon="9.231210000">
        <ele>385.00000</ele>
        <time>2010-01-01T00:41:49Z</time>
      </trkpt>
      <trkpt lat="48.77043000" lon="9.230110000">
        <ele>386.00000</ele>
        <time>2010-01-01T00:42:48Z</time>
      </trkpt>
      <trkpt lat="48.77100000" lon="9.229320000">
        <ele>387.00000</ele>
        <time>2010-01-01T00:43:19Z</time>
      </trkpt>
      <trkpt lat="48.77113000" lon="9.226140000">
        <ele>396.00000</ele>
        <time>2010-01-01T00:44:43Z</time>
      </trkpt>
      <trkpt lat="48.77131000" lon="9.223500000">
        <ele>404.00000</ele>
        <time>2010-01-01T00:45:53Z</time>
      </trkpt>
      <trkpt lat="48.77059000" lon="9.219770000">
        <ele>404.00000</ele>
        <time>2010-01-01T00:47:35Z</time>
      </trkpt>
      <trkpt lat="48.77084000" lon="9.219670000">
        <ele>406.00000</ele>
        <time>2010-01-01T00:47:46Z</time>
      </trkpt>
      <trkpt lat="48.77032000" lon="9.216650000">
        <ele>410.00000</ele>
        <time>2010-01-01T00:49:08Z</time>
      </trkpt>
      <trkpt lat="48.76963000" lon="9.214100000">
        <ele>408.00000</ele>
        <time>2010-01-01T00:50:21Z</time>
      </trkpt>
      <trkpt lat="48.76913000" lon="9.212910000">
        <ele>407.00000</ele>
        <time>2010-01-01T00:50:58Z</time>
      </trkpt>
      <trkpt lat="48.76885000" lon="9.212960000">
        <ele>407.00000</ele>
        <time>2010-01-01T00:51:09Z</time>
      </trkpt>
      <trkpt lat="48.76893000" lon="9.212670000">
        <ele>407.00000</ele>
        <time>2010-01-01T00:51:18Z</time>
      </trkpt>
      <trkpt lat="48.76892000" lon="9.212320000">
        <ele>405.00000</ele>
        <time>2010-01-01T00:51:27Z</time>
      </trkpt>
      <trkpt lat="48.76661000" lon="9.207620000">
        <ele>417.00000</ele>
        <time>2010-01-01T00:54:02Z</time>
      </trkpt>
      <trkpt lat="48.76636000" lon="9.205300000">
        <ele>419.00000</ele>
        <time>2010-01-01T00:55:04Z</time>
      </trkpt>
      <trkpt lat="48.76621000" lon="9.204840000">
        <ele>417.00000</ele>
        <time>2010-01-01T00:55:17Z</time>
      </trkpt>
      <trkpt lat="48.76621000" lon="9.203590000">
        <ele>418.00000</ele>
        <time>2010-01-01T00:55:50Z</time>
      </trkpt>
      <trkpt lat="48.76635000" lon="9.203270000">
        <ele>416.00000</ele>
        <time>2010-01-01T00:56:00Z</time>
      </trkpt>
      <trkpt lat="48.76683000" lon="9.201410000">
        <ele>419.00000</ele>
        <time>2010-01-01T00:56:53Z</time>
      </trkpt>
      <trkpt lat="48.76662000" lon="9.200710000">
        <ele>417.00000</ele>
        <time>2010-01-01T00:57:13Z</time>
      </trkpt>
      <trkpt lat="48.76612000" lon="9.200370000">
        <ele>417.00000</ele>
        <time>2010-01-01T00:57:35Z</time>
      </trkpt>
      <trkpt lat="48.76571000" lon="9.200620000">
        <ele>419.00000</ele>
        <time>2010-01-01T00:57:53Z</time>
      </trkpt>
      <trkpt lat="48.76526000" lon="9.200560000">
        <ele>419.00000</ele>
        <time>2010-01-01T00:58:11Z</time>
      </trkpt>
      <trkpt lat="48.76500000" lon="9.200300000">
        <ele>420.00000</ele>
        <time>2010-01-01T00:58:23Z</time>
      </trkpt>
      <trkpt lat="48.76449000" lon="9.199400000">
        <ele>419.00000</ele>
        <time>2010-01-01T00:58:55Z</time>
      </trkpt>
      <trkpt lat="48.76416000" lon="9.199360000">
        <ele>423.00000</ele>
        <time>2010-01-01T00:59:08Z</time>
      </trkpt>
      <trkpt lat="48.76372000" lon="9.199830000">
        <ele>422.00000</ele>
        <time>2010-01-01T00:59:29Z</time>
      </trkpt>
      <trkpt lat="48.76357000" lon="9.199840000">
        <ele>422.00000</ele>
        <time>2010-01-01T00:59:35Z</time>
      </trkpt>
      <trkpt lat="48.76305000" lon="9.199470000">
        <ele>424.00000</ele>
        <time>2010-01-01T00:59:58Z</time>
      </trkpt>
      <trkpt lat="48.76226000" lon="9.199590000">
        <ele>424.00000</ele>
        <time>2010-01-01T01:00:30Z</time>
      </trkpt>
      <trkpt lat="48.76200000" lon="9.199350000">
        <ele>420.00000</ele>
        <time>2010-01-01T01:00:42Z</time>
      </trkpt>
      <trkpt lat="48.76140000" lon="9.198230000">
        <ele>430.00000</ele>
        <time>2010-01-01T01:01:21Z</time>
      </trkpt>
      <trkpt lat="48.76092000" lon="9.193910000">
        <ele>425.00000</ele>
        <time>2010-01-01T01:03:16Z</time>
      </trkpt>
      <trkpt lat="48.76111000" lon="9.192560000">
        <ele>428.00000</ele>
        <time>2010-01-01T01:03:53Z</time>
      </trkpt>
      <trkpt lat="48.76089000" lon="9.187940000">
        <ele>429.00000</ele>
        <time>2010-01-01T01:05:55Z</time>
      </trkpt>
      <trkpt lat="48.75990000" lon="9.185110000">
        <ele>440.00000</ele>
        <time>2010-01-01T01:07:19Z</time>
      </trkpt>
      <trkpt lat="48.75934000" lon="9.184360000">
        <ele>441.00000</ele>
        <time>2010-01-01T01:07:49Z</time>
      </trkpt>
      <trkpt lat="48.75771000" lon="9.183220000">
        <ele>439.00000</ele>
        <time>2010-01-01T01:09:01Z</time>
      </trkpt>
      <trkpt lat="48.75730000" lon="9.182580000">
        <ele>435.00000</ele>
        <time>2010-01-01T01:09:25Z</time>
      </trkpt>
      <trkpt lat="48.75720000" lon="9.182230000">
        <ele>435.00000</ele>
        <time>2010-01-01T01:09:35Z</time>
      </trkpt>
      <trkpt lat="48.75720000" lon="9.181370000">
        <ele>434.00000</ele>
        <time>2010-01-01T01:09:57Z</time>
      </trkpt>
      <trkpt lat="48.75688000" lon="9.181330000">
        <ele>438.00000</ele>
        <time>2010-01-01T01:10:10Z</time>
      </trkpt>
      <trkpt lat="48.75664000" lon="9.181170000">
        <ele>441.00000</ele>
        <time>2010-01-01T01:10:21Z</time>
      </trkpt>
      <trkpt lat="48.75612000" lon="9.180290000">
        <ele>443.00000</ele>
        <time>2010-01-01T01:10:52Z</time>
      </trkpt>
      <trkpt lat="48.75475000" lon="9.175560000">
        <ele>445.00000</ele>
        <time>2010-01-01T01:13:08Z</time>
      </trkpt>
      <trkpt lat="48.75487000" lon="9.173860000">
        <ele>429.00000</ele>
        <time>2010-01-01T01:13:53Z</time>
      </trkpt>
      <trkpt lat="48.75513000" lon="9.173080000">
        <ele>427.00000</ele>
        <time>2010-01-01T01:14:16Z</time>
      </trkpt>
      <trkpt lat="48.75523000" lon="9.172510000">
        <ele>429.00000</ele>
        <time>2010-01-01T01:14:32Z</time>
      </trkpt>
      <trkpt lat="48.75513000" lon="9.172110000">
        <ele>432.00000</ele>
        <time>2010-01-01T01:14:43Z</time>
      </trkpt>
      <trkpt lat="48.75432000" lon="9.171630000">
        <ele>440.00000</ele>
        <time>2010-01-01T01:15:18Z</time>
      </trkpt>
      <trkpt lat="48.75436000" lon="9.170450000">
        <ele>434.00000</ele>
        <time>2010-01-01T01:15:49Z</time>
      </trkpt>
      <trkpt lat="48.75404000" lon="9.168650000">
        <ele>424.00000</ele>
        <time>2010-01-01T01:16:39Z</time>
      </trkpt>
      <trkpt lat="48.75298000" lon="9.169460000">
        <ele>424.00000</ele>
        <time>2010-01-01T01:17:26Z</time>
      </trkpt>
      <trkpt lat="48.75242000" lon="9.169390000">
        <ele>425.00000</ele>
        <time>2010-01-01T01:17:49Z</time>
      </trkpt>
      <trkpt lat="48.75218000" lon="9.169180000">
        <ele>425.00000</ele>
        <time>2010-01-01T01:18:00Z</time>
      </trkpt>
      <trkpt lat="48.75130000" lon="9.167610000">
        <ele>419.00000</ele>
        <time>2010-01-01T01:18:54Z</time>
      </trkpt>
      <trkpt lat="48.75095000" lon="9.166770000">
        <ele>422.00000</ele>
        <time>2010-01-01T01:19:20Z</time>
      </trkpt>
      <trkpt lat="48.75086000" lon="9.166040000">
        <ele>420.00000</ele>
        <time>2010-01-01T01:19:40Z</time>
      </trkpt>
      <trkpt lat="48.75098000" lon="9.165040000">
        <ele>418.00000</ele>
        <time>2010-01-01T01:20:07Z</time>
      </trkpt>
      <trkpt lat="48.75090000" lon="9.162130000">
        <ele>412.00000</ele>
        <time>2010-01-01T01:21:24Z</time>
      </trkpt>
      <trkpt lat="48.75063000" lon="9.161290000">
        <ele>409.00000</ele>
        <time>2010-01-01T01:21:48Z</time>
      </trkpt>
      <trkpt lat="48.75061000" lon="9.160690000">
        <ele>407.00000</ele>
        <time>2010-01-01T01:22:04Z</time>
      </trkpt>
      <trkpt lat="48.75099000" lon="9.158170000">
        <ele>405.00000</ele>
        <time>2010-01-01T01:23:12Z</time>
      </trkpt>
      <trkpt lat="48.75140000" lon="9.157710000">
        <ele>402.00000</ele>
        <time>2010-01-01T01:23:33Z</time>
      </trkpt>
      <trkpt lat="48.75340000" lon="9.156740000">
        <ele>395.00000</ele>
        <time>2010-01-01T01:24:57Z</time>
      </trkpt>
      <trkpt lat="48.75402000" lon="9.156590000">
        <ele>396.00000</ele>
        <time>2010-01-01T01:25:22Z</time>
      </trkpt>
      <trkpt lat="48.75428000" lon="9.156170000">
        <ele>397.00000</ele>
        <time>2010-01-01T01:25:37Z</time>
      </trkpt>
      <trkpt lat="48.75443000" lon="9.155710000">
        <ele>398.00000</ele>
        <time>2010-01-01T01:25:51Z</time>
      </trkpt>
      <trkpt lat="48.75450000" lon="9.154100000">
        <ele>400.00000</ele>
        <time>2010-01-01T01:26:33Z</time>
      </trkpt>
      <trkpt lat="48.75440000" lon="9.153610000">
        <ele>400.00000</ele>
        <time>2010-01-01T01:26:47Z</time>
      </trkpt>
      <trkpt lat="48.75421000" lon="9.153190000">
        <ele>401.00000</ele>
        <time>2010-01-01T01:27:00Z</time>
      </trkpt>
      <trkpt lat="48.75395000" lon="9.152950000">
        <ele>400.00000</ele>
        <time>2010-01-01T01:27:12Z</time>
      </trkpt>
      <trkpt lat="48.75212000" lon="9.152740000">
        <ele>397.00000</ele>
        <time>2010-01-01T01:28:26Z</time>
      </trkpt>
      <trkpt lat="48.75186000" lon="9.152590000">
        <ele>398.00000</ele>
        <time>2010-01-01T01:28:37Z</time>
      </trkpt>
      <trkpt lat="48.75173000" lon="9.152360000">
        <ele>397.00000</ele>
        <time>2010-01-01T01:28:45Z</time>
      </trkpt>
      <trkpt lat="48.75174000" lon="9.152100000">
        <ele>397.00000</ele>
        <time>2010-01-01T01:28:52Z</time>
      </trkpt>
      <trkpt lat="48.75206000" lon="9.151680000">
        <ele>395.00000</ele>
        <time>2010-01-01T01:29:09Z</time>
      </trkpt>
      <trkpt lat="48.75224000" lon="9.151000000">
        <ele>392.00000</ele>
        <time>2010-01-01T01:29:28Z</time>
      </trkpt>
      <trkpt lat="48.75226000" lon="9.150580000">
        <ele>391.00000</ele>
        <time>2010-01-01T01:29:39Z</time>
      </trkpt>
      <trkpt lat="48.75205000" lon="9.149540000">
        <ele>391.00000</ele>
        <time>2010-01-01T01:30:08Z</time>
      </trkpt>
      <trkpt lat="48.75119000" lon="9.146910000">
        <ele>387.00000</ele>
        <time>2010-01-01T01:31:25Z</time>
      </trkpt>
      <trkpt lat="48.75103000" lon="9.146600000">
        <ele>386.00000</ele>
        <time>2010-01-01T01:31:36Z</time>
      </trkpt>
      <trkpt lat="48.75050000" lon="9.146780000">
        <ele>387.00000</ele>
        <time>2010-01-01T01:31:58Z</time>
      </trkpt>
      <trkpt lat="48.75026000" lon="9.147030000">
        <ele>387.00000</ele>
        <time>2010-01-01T01:32:09Z</time>
      </trkpt>
      <trkpt lat="48.75001000" lon="9.147550000">
        <ele>392.00000</ele>
        <time>2010-01-01T01:32:26Z</time>
      </trkpt>
      <trkpt lat="48.74967000" lon="9.146600000">
        <ele>384.00000</ele>
        <time>2010-01-01T01:32:55Z</time>
      </trkpt>
      <trkpt lat="48.74808000" lon="9.143980000">
        <ele>374.00000</ele>
        <time>2010-01-01T01:34:29Z</time>
      </trkpt>
      <trkpt lat="48.74791000" lon="9.144230000">
        <ele>371.00000</ele>
        <time>2010-01-01T01:34:38Z</time>
      </trkpt>
      <trkpt lat="48.74789000" lon="9.144440000">
        <ele>359.00000</ele>
        <time>2010-01-01T01:34:44Z</time>
      </trkpt>
      <trkpt lat="48.74828000" lon="9.145230000">
        <ele>367.00000</ele>
        <time>2010-01-01T01:35:10Z</time>
      </trkpt>
      <trkpt lat="48.74816000" lon="9.145360000">
        <ele>374.00000</ele>
        <time>2010-01-01T01:35:16Z</time>
      </trkpt>
      <trkpt lat="48.74790000" lon="9.145210000">
        <ele>368.00000</ele>
        <time>2010-01-01T01:35:27Z</time>
      </trkpt>
      <trkpt lat="48.74757000" lon="9.145300000">
        <ele>349.00000</ele>
        <time>2010-01-01T01:35:40Z</time>
      </trkpt>
      <trkpt lat="48.74762000" lon="9.144650000">
        <ele>350.00000</ele>
        <time>2010-01-01T01:35:58Z</time>
      </trkpt>
      <trkpt lat="48.74743000" lon="9.143720000">
        <ele>346.00000</ele>
        <time>2010-01-01T01:36:23Z</time>
      </trkpt>
      <trkpt lat="48.74742000" lon="9.142370000">
        <ele>339.00000</ele>
        <time>2010-01-01T01:36:59Z</time>
      </trkpt>
      <trkpt lat="48.74710000" lon="9.140500000">
        <ele>330.00000</ele>
        <time>2010-01-01T01:37:50Z</time>
      </trkpt>
      <trkpt lat="48.74723000" lon="9.139790000">
        <ele>329.00000</ele>
        <time>2010-01-01T01:38:09Z</time>
      </trkpt>
      <trkpt lat="48.74702000" lon="9.137070000">
        <ele>318.00000</ele>
        <time>2010-01-01T01:39:22Z</time>
      </trkpt>
      <trkpt lat="48.74703000" lon="9.136490000">
        <ele>314.00000</ele>
        <time>2010-01-01T01:39:37Z</time>
      </trkpt>
      <trkpt lat="48.74546000" lon="9.135340000">
        <ele>318.00000</ele>
        <time>2010-01-01T01:40:47Z</time>
      </trkpt>
      <trkpt lat="48.74533000" lon="9.134800000">
        <ele>319.00000</ele>
        <time>2010-01-01T01:41:02Z</time>
      </trkpt>
      <trkpt lat="48.74537000" lon="9.134490000">
        <ele>319.00000</ele>
        <time>2010-01-01T01:41:10Z</time>
      </trkpt>
      <trkpt lat="48.74640000" lon="9.135090000">
        <ele>323.00000</ele>
        <time>2010-01-01T01:41:54Z</time>
      </trkpt>
      <trkpt lat="48.74651000" lon="9.134830000">
        <ele>323.00000</ele>
        <time>2010-01-01T01:42:03Z</time>
      </trkpt>
      <trkpt lat="48.74595000" lon="9.132370000">
        <ele>345.00000</ele>
        <time>2010-01-01T01:43:11Z</time>
      </trkpt>
      <trkpt lat="48.74552000" lon="9.131310000">
        <ele>350.00000</ele>
        <time>2010-01-01T01:43:44Z</time>
      </trkpt>
      <trkpt lat="48.74543000" lon="9.130480000">
        <ele>347.00000</ele>
        <time>2010-01-01T01:44:06Z</time>
      </trkpt>
      <trkpt lat="48.74549000" lon="9.129790000">
        <ele>360.00000</ele>
        <time>2010-01-01T01:44:25Z</time>
      </trkpt>
      <trkpt lat="48.74562000" lon="9.129470000">
        <ele>357.00000</ele>
        <time>2010-01-01T01:44:35Z</time>
      </trkpt>
      <trkpt lat="48.74703000" lon="9.129120000">
        <ele>371.00000</ele>
        <time>2010-01-01T01:45:32Z</time>
      </trkpt>
      <trkpt lat="48.74729000" lon="9.128890000">
        <ele>371.00000</ele>
        <time>2010-01-01T01:45:44Z</time>
      </trkpt>
      <trkpt lat="48.74744000" lon="9.128480000">
        <ele>370.00000</ele>
        <time>2010-01-01T01:45:56Z</time>
      </trkpt>
      <trkpt lat="48.74755000" lon="9.127560000">
        <ele>381.00000</ele>
        <time>2010-01-01T01:46:21Z</time>
      </trkpt>
      <trkpt lat="48.74778000" lon="9.127830000">
        <ele>381.00000</ele>
        <time>2010-01-01T01:46:33Z</time>
      </trkpt>
      <trkpt lat="48.74828000" lon="9.129730000">
        <ele>380.00000</ele>
        <time>2010-01-01T01:47:27Z</time>
      </trkpt>
      <trkpt lat="48.74852000" lon="9.130190000">
        <ele>380.00000</ele>
        <time>2010-01-01T01:47:42Z</time>
      </trkpt>
      <trkpt lat="48.74895000" lon="9.130440000">
        <ele>381.00000</ele>
        <time>2010-01-01T01:48:00Z</time>
      </trkpt>
      <trkpt lat="48.74989000" lon="9.130210000">
        <ele>384.00000</ele>
        <time>2010-01-01T01:48:39Z</time>
      </trkpt>
      <trkpt lat="48.75079000" lon="9.129780000">
        <ele>383.00000</ele>
        <time>2010-01-01T01:49:16Z</time>
      </trkpt>
      <trkpt lat="48.75230000" lon="9.128790000">
        <ele>388.00000</ele>
        <time>2010-01-01T01:50:22Z</time>
      </trkpt>
      <trkpt lat="48.75285000" lon="9.127250000">
        <ele>392.00000</ele>
        <time>2010-01-01T01:51:08Z</time>
      </trkpt>
      <trkpt lat="48.75302000" lon="9.126970000">
        <ele>390.00000</ele>
        <time>2010-01-01T01:51:18Z</time>
      </trkpt>
      <trkpt lat="48.75430000" lon="9.125940000">
        <ele>396.00000</ele>
        <time>2010-01-01T01:52:16Z</time>
      </trkpt>
      <trkpt lat="48.75454000" lon="9.125620000">
        <ele>399.00000</ele>
        <time>2010-01-01T01:52:29Z</time>
      </trkpt>
      <trkpt lat="48.75407000" lon="9.124290000">
        <ele>403.00000</ele>
        <time>2010-01-01T01:53:09Z</time>
      </trkpt>
      <trkpt lat="48.75455000" lon="9.123850000">
        <ele>406.00000</ele>
        <time>2010-01-01T01:53:32Z</time>
      </trkpt>
      <trkpt lat="48.75657000" lon="9.123260000">
        <ele>402.00000</ele>
        <time>2010-01-01T01:54:54Z</time>
      </trkpt>
      <trkpt lat="48.75687000" lon="9.122270000">
        <ele>403.00000</ele>
        <time>2010-01-01T01:55:23Z</time>
      </trkpt>
      <trkpt lat="48.75726000" lon="9.121960000">
        <ele>401.00000</ele>
        <time>2010-01-01T01:55:40Z</time>
      </trkpt>
      <trkpt lat="48.75723000" lon="9.121610000">
        <ele>400.00000</ele>
        <time>2010-01-01T01:55:50Z</time>
      </trkpt>
      <trkpt lat="48.75730000" lon="9.121210000">
        <ele>408.00000</ele>
        <time>2010-01-01T01:56:01Z</time>
      </trkpt>
      <trkpt lat="48.75745000" lon="9.120930000">
        <ele>403.00000</ele>
        <time>2010-01-01T01:56:10Z</time>
      </trkpt>
      <trkpt lat="48.75846000" lon="9.120430000">
        <ele>409.00000</ele>
        <time>2010-01-01T01:56:53Z</time>
      </trkpt>
      <trkpt lat="48.75892000" lon="9.120510000">
        <ele>411.00000</ele>
        <time>2010-01-01T01:57:11Z</time>
      </trkpt>
      <trkpt lat="48.75913000" lon="9.120740000">
        <ele>415.00000</ele>
        <time>2010-01-01T01:57:21Z</time>
      </trkpt>
      <trkpt lat="48.76010000" lon="9.125920000">
        <ele>419.00000</ele>
        <time>2010-01-01T01:59:44Z</time>
      </trkpt>
      <trkpt lat="48.76144000" lon="9.129900000">
        <ele>424.00000</ele>
        <time>2010-01-01T02:01:41Z</time>
      </trkpt>
      <trkpt lat="48.76201000" lon="9.131270000">
        <ele>428.00000</ele>
        <time>2010-01-01T02:02:24Z</time>
      </trkpt>
      <trkpt lat="48.76322000" lon="9.133830000">
        <ele>426.00000</ele>
        <time>2010-01-01T02:03:47Z</time>
      </trkpt>
      <trkpt lat="48.76347000" lon="9.134670000">
        <ele>427.00000</ele>
        <time>2010-01-01T02:04:12Z</time>
      </trkpt>
      <trkpt lat="48.76379000" lon="9.135070000">
        <ele>433.00000</ele>
        <time>2010-01-01T02:04:28Z</time>
      </trkpt>
      <trkpt lat="48.76399000" lon="9.135060000">
        <ele>441.00000</ele>
        <time>2010-01-01T02:04:36Z</time>
      </trkpt>
      <trkpt lat="48.76422000" lon="9.135390000">
        <ele>445.00000</ele>
        <time>2010-01-01T02:04:49Z</time>
      </trkpt>
      <trkpt lat="48.76435000" lon="9.135370000">
        <ele>452.00000</ele>
        <time>2010-01-01T02:04:54Z</time>
      </trkpt>
      <trkpt lat="48.76495000" lon="9.134030000">
        <ele>456.00000</ele>
        <time>2010-01-01T02:05:37Z</time>
      </trkpt>
      <trkpt lat="48.76626000" lon="9.133720000">
        <ele>451.00000</ele>
        <time>2010-01-01T02:06:30Z</time>
      </trkpt>
      <trkpt lat="48.76698000" lon="9.133750000">
        <ele>447.00000</ele>
        <time>2010-01-01T02:06:59Z</time>
      </trkpt>
      <trkpt lat="48.76789000" lon="9.133950000">
        <ele>435.00000</ele>
        <time>2010-01-01T02:07:36Z</time>
      </trkpt>
      <trkpt lat="48.76968000" lon="9.133950000">
        <ele>417.00000</ele>
        <time>2010-01-01T02:08:47Z</time>
      </trkpt>
      <trkpt lat="48.77014000" lon="9.134210000">
        <ele>415.00000</ele>
        <time>2010-01-01T02:09:07Z</time>
      </trkpt>
      <trkpt lat="48.77068000" lon="9.134720000">
        <ele>403.00000</ele>
        <time>2010-01-01T02:09:32Z</time>
      </trkpt>
      <trkpt lat="48.77220000" lon="9.134850000">
        <ele>390.00000</ele>
        <time>2010-01-01T02:10:33Z</time>
      </trkpt>
      <trkpt lat="48.77241000" lon="9.135180000">
        <ele>398.00000</ele>
        <time>2010-01-01T02:10:45Z</time>
      </trkpt>
      <trkpt lat="48.77253000" lon="9.135830000">
        <ele>398.00000</ele>
        <time>2010-01-01T02:11:03Z</time>
      </trkpt>
      <trkpt lat="48.77341000" lon="9.136040000">
        <ele>388.00000</ele>
        <time>2010-01-01T02:11:39Z</time>
      </trkpt>
      <trkpt lat="48.77548000" lon="9.135730000">
        <ele>378.00000</ele>
        <time>2010-01-01T02:13:02Z</time>
      </trkpt>
      <trkpt lat="48.77719000" lon="9.134620000">
        <ele>375.00000</ele>
        <time>2010-01-01T02:14:17Z</time>
      </trkpt>
      <trkpt lat="48.77747000" lon="9.134670000">
        <ele>372.00000</ele>
        <time>2010-01-01T02:14:28Z</time>
      </trkpt>
      <trkpt lat="48.77772000" lon="9.134910000">
        <ele>375.00000</ele>
        <time>2010-01-01T02:14:40Z</time>
      </trkpt>
      <trkpt lat="48.77820000" lon="9.136010000">
        <ele>382.00000</ele>
        <time>2010-01-01T02:15:15Z</time>
      </trkpt>
      <trkpt lat="48.77873000" lon="9.135800000">
        <ele>380.00000</ele>
        <time>2010-01-01T02:15:37Z</time>
      </trkpt>
      <trkpt lat="48.77991000" lon="9.135990000">
        <ele>374.00000</ele>
        <time>2010-01-01T02:16:24Z</time>
      </trkpt>
      <trkpt lat="48.78178000" lon="9.136980000">
        <ele>381.00000</ele>
        <time>2010-01-01T02:17:43Z</time>
      </trkpt>
      <trkpt lat="48.78208000" lon="9.137360000">
        <ele>380.00000</ele>
        <time>2010-01-01T02:17:59Z</time>
      </trkpt>
      <trkpt lat="48.78241000" lon="9.138040000">
        <ele>376.00000</ele>
        <time>2010-01-01T02:18:21Z</time>
      </trkpt>
      <trkpt lat="48.78280000" lon="9.138470000">
        <ele>368.00000</ele>
        <time>2010-01-01T02:18:41Z</time>
      </trkpt>
      <trkpt lat="48.78236000" lon="9.140510000">
        <ele>367.00000</ele>
        <time>2010-01-01T02:19:37Z</time>
      </trkpt>
      <trkpt lat="48.78245000" lon="9.141210000">
        <ele>370.00000</ele>
        <time>2010-01-01T02:19:56Z</time>
      </trkpt>
      <trkpt lat="48.78343000" lon="9.143810000">
        <ele>386.00000</ele>
        <time>2010-01-01T02:21:15Z</time>
      </trkpt>
      <trkpt lat="48.78389000" lon="9.145910000">
        <ele>386.00000</ele>
        <time>2010-01-01T02:22:13Z</time>
      </trkpt>
      <trkpt lat="48.78637000" lon="9.148250000">
        <ele>373.00000</ele>
        <time>2010-01-01T02:24:10Z</time>
      </trkpt>
      <trkpt lat="48.78663000" lon="9.148690000">
        <ele>372.00000</ele>
        <time>2010-01-01T02:24:26Z</time>
      </trkpt>
      <trkpt lat="48.78689000" lon="9.149780000">
        <ele>375.00000</ele>
        <time>2010-01-01T02:24:56Z</time>
      </trkpt>
      <trkpt lat="48.78720000" lon="9.150410000">
        <ele>378.00000</ele>
        <time>2010-01-01T02:25:17Z</time>
      </trkpt>
      <trkpt lat="48.78742000" lon="9.150510000">
        <ele>375.00000</ele>
        <time>2010-01-01T02:25:26Z</time>
      </trkpt>
      <trkpt lat="48.78909000" lon="9.148660000">
        <ele>348.00000</ele>
        <time>2010-01-01T02:26:49Z</time>
      </trkpt>
      <trkpt lat="48.78950000" lon="9.148040000">
        <ele>345.00000</ele>
        <time>2010-01-01T02:27:12Z</time>
      </trkpt>
      <trkpt lat="48.78993000" lon="9.147590000">
        <ele>341.00000</ele>
        <time>2010-01-01T02:27:33Z</time>
      </trkpt>
      <trkpt lat="48.79014000" lon="9.147050000">
        <ele>341.00000</ele>
        <time>2010-01-01T02:27:50Z</time>
      </trkpt>
      <trkpt lat="48.79056000" lon="9.146570000">
        <ele>346.00000</ele>
        <time>2010-01-01T02:28:11Z</time>
      </trkpt>
      <trkpt lat="48.79075000" lon="9.146170000">
        <ele>344.00000</ele>
        <time>2010-01-01T02:28:24Z</time>
      </trkpt>
      <trkpt lat="48.79108000" lon="9.146010000">
        <ele>330.00000</ele>
        <time>2010-01-01T02:28:38Z</time>
      </trkpt>
      <trkpt lat="48.79188000" lon="9.146260000">
        <ele>324.00000</ele>
        <time>2010-01-01T02:29:10Z</time>
      </trkpt>
      <trkpt lat="48.79241000" lon="9.146300000">
        <ele>315.00000</ele>
        <time>2010-01-01T02:29:32Z</time>
      </trkpt>
      <trkpt lat="48.79289000" lon="9.146850000">
        <ele>309.00000</ele>
        <time>2010-01-01T02:29:56Z</time>
      </trkpt>
      <trkpt lat="48.79360000" lon="9.147360000">
        <ele>301.00000</ele>
        <time>2010-01-01T02:30:27Z</time>
      </trkpt>
      <trkpt lat="48.79382000" lon="9.147650000">
        <ele>300.00000</ele>
        <time>2010-01-01T02:30:39Z</time>
      </trkpt>
      <trkpt lat="48.79484000" lon="9.146910000">
        <ele>304.00000</ele>
        <time>2010-01-01T02:31:24Z</time>
      </trkpt>
      <trkpt lat="48.79502000" lon="9.146420000">
        <ele>307.00000</ele>
        <time>2010-01-01T02:31:39Z</time>
      </trkpt>
      <trkpt lat="48.79524000" lon="9.146510000">
        <ele>312.00000</ele>
        <time>2010-01-01T02:31:48Z</time>
      </trkpt>
      <trkpt lat="48.79605000" lon="9.145290000">
        <ele>338.00000</ele>
        <time>2010-01-01T02:32:34Z</time>
      </trkpt>
      <trkpt lat="48.79689000" lon="9.144440000">
        <ele>347.00000</ele>
        <time>2010-01-01T02:33:14Z</time>
      </trkpt>
      <trkpt lat="48.79809000" lon="9.142760000">
        <ele>355.00000</ele>
        <time>2010-01-01T02:34:19Z</time>
      </trkpt>
      <trkpt lat="48.79983000" lon="9.141530000">
        <ele>360.00000</ele>
        <time>2010-01-01T02:35:36Z</time>
      </trkpt>
      <trkpt lat="48.80041000" lon="9.140950000">
        <ele>362.00000</ele>
        <time>2010-01-01T02:36:04Z</time>
      </trkpt>
      <trkpt lat="48.80158000" lon="9.139250000">
        <ele>368.00000</ele>
        <time>2010-01-01T02:37:09Z</time>
      </trkpt>
      <trkpt lat="48.80182000" lon="9.138630000">
        <ele>367.00000</ele>
        <time>2010-01-01T02:37:28Z</time>
      </trkpt>
      <trkpt lat="48.80258000" lon="9.138120000">
        <ele>369.00000</ele>
        <time>2010-01-01T02:38:01Z</time>
      </trkpt>
      <trkpt lat="48.80296000" lon="9.138170000">
        <ele>369.00000</ele>
        <time>2010-01-01T02:38:16Z</time>
      </trkpt>
      <trkpt lat="48.80248000" lon="9.137800000">
        <ele>370.00000</ele>
        <time>2010-01-01T02:38:38Z</time>
      </trkpt>
      <trkpt lat="48.80162000" lon="9.136470000">
        <ele>377.00000</ele>
        <time>2010-01-01T02:39:27Z</time>
      </trkpt>
      <trkpt lat="48.80138000" lon="9.135780000">
        <ele>380.00000</ele>
        <time>2010-01-01T02:39:48Z</time>
      </trkpt>
      <trkpt lat="48.80125000" lon="9.132870000">
        <ele>400.00000</ele>
        <time>2010-01-01T02:41:04Z</time>
      </trkpt>
      <trkpt lat="48.80103000" lon="9.131590000">
        <ele>405.00000</ele>
        <time>2010-01-01T02:41:39Z</time>
      </trkpt>
      <trkpt lat="48.80063000" lon="9.130160000">
        <ele>412.00000</ele>
        <time>2010-01-01T02:42:20Z</time>
      </trkpt>
      <trkpt lat="48.79996000" lon="9.128490000">
        <ele>411.00000</ele>
        <time>2010-01-01T02:43:12Z</time>
      </trkpt>
      <trkpt lat="48.79940000" lon="9.127580000">
        <ele>414.00000</ele>
        <time>2010-01-01T02:43:45Z</time>
      </trkpt>
      <trkpt lat="48.79939000" lon="9.126440000">
        <ele>421.00000</ele>
        <time>2010-01-01T02:44:15Z</time>
      </trkpt>
      <trkpt lat="48.80002000" lon="9.126820000">
        <ele>422.00000</ele>
        <time>2010-01-01T02:44:42Z</time>
      </trkpt>
      <trkpt lat="48.80033000" lon="9.126830000">
        <ele>425.00000</ele>
        <time>2010-01-01T02:44:54Z</time>
      </trkpt>
      <trkpt lat="48.79402000" lon="9.117530000">
        <ele>412.00000</ele>
        <time>2010-01-01T02:50:46Z</time>
      </trkpt>
      <trkpt lat="48.79446000" lon="9.116880000">
        <ele>412.00000</ele>
        <time>2010-01-01T02:51:11Z</time>
      </trkpt>
      <trkpt lat="48.79583000" lon="9.116000000">
        <ele>405.00000</ele>
        <time>2010-01-01T02:52:10Z</time>
      </trkpt>
      <trkpt lat="48.79684000" lon="9.116210000">
        <ele>402.00000</ele>
        <time>2010-01-01T02:52:51Z</time>
      </trkpt>
      <trkpt lat="48.79789000" lon="9.115890000">
        <ele>407.00000</ele>
        <time>2010-01-01T02:53:34Z</time>
      </trkpt>
      <trkpt lat="48.79817000" lon="9.115990000">
        <ele>406.00000</ele>
        <time>2010-01-01T02:53:46Z</time>
      </trkpt>
      <trkpt lat="48.79828000" lon="9.116380000">
        <ele>405.00000</ele>
        <time>2010-01-01T02:53:57Z</time>
      </trkpt>
      <trkpt lat="48.79824000" lon="9.118210000">
        <ele>408.00000</ele>
        <time>2010-01-01T02:54:45Z</time>
      </trkpt>
      <trkpt lat="48.79889000" lon="9.120070000">
        <ele>404.00000</ele>
        <time>2010-01-01T02:55:41Z</time>
      </trkpt>
      <trkpt lat="48.79910000" lon="9.120360000">
        <ele>403.00000</ele>
        <time>2010-01-01T02:55:52Z</time>
      </trkpt>
      <trkpt lat="48.79931000" lon="9.120180000">
        <ele>396.00000</ele>
        <time>2010-01-01T02:56:02Z</time>
      </trkpt>
      <trkpt lat="48.79960000" lon="9.119580000">
        <ele>388.00000</ele>
        <time>2010-01-01T02:56:21Z</time>
      </trkpt>
      <trkpt lat="48.79997000" lon="9.119520000">
        <ele>380.00000</ele>
        <time>2010-01-01T02:56:36Z</time>
      </trkpt>
      <trkpt lat="48.80078000" lon="9.120310000">
        <ele>370.00000</ele>
        <time>2010-01-01T02:57:15Z</time>
      </trkpt>
      <trkpt lat="48.80118000" lon="9.120440000">
        <ele>370.00000</ele>
        <time>2010-01-01T02:57:31Z</time>
      </trkpt>
      <trkpt lat="48.80105000" lon="9.118370000">
        <ele>349.00000</ele>
        <time>2010-01-01T02:58:26Z</time>
      </trkpt>
      <trkpt lat="48.80132000" lon="9.118260000">
        <ele>343.00000</ele>
        <time>2010-01-01T02:58:37Z</time>
      </trkpt>
      <trkpt lat="48.80174000" lon="9.118520000">
        <ele>340.00000</ele>
        <time>2010-01-01T02:58:55Z</time>
      </trkpt>
      <trkpt lat="48.80186000" lon="9.118370000">
        <ele>340.00000</ele>
        <time>2010-01-01T02:59:01Z</time>
      </trkpt>
      <trkpt lat="48.80210000" lon="9.118410000">
        <ele>338.00000</ele>
        <time>2010-01-01T02:59:11Z</time>
      </trkpt>
      <trkpt lat="48.80381000" lon="9.120440000">
        <ele>333.00000</ele>
        <time>2010-01-01T03:00:38Z</time>
      </trkpt>
      <trkpt lat="48.80411000" lon="9.121000000">
        <ele>332.00000</ele>
        <time>2010-01-01T03:00:57Z</time>
      </trkpt>
      <trkpt lat="48.80514000" lon="9.122120000">
        <ele>333.00000</ele>
        <time>2010-01-01T03:01:48Z</time>
      </trkpt>
      <trkpt lat="48.80584000" lon="9.122460000">
        <ele>333.00000</ele>
        <time>2010-01-01T03:02:17Z</time>
      </trkpt>
      <trkpt lat="48.80616000" lon="9.122330000">
        <ele>331.00000</ele>
        <time>2010-01-01T03:02:30Z</time>
      </trkpt>
      <trkpt lat="48.80739000" lon="9.122740000">
        <ele>329.00000</ele>
        <time>2010-01-01T03:03:21Z</time>
      </trkpt>
      <trkpt lat="48.80770000" lon="9.123130000">
        <ele>329.00000</ele>
        <time>2010-01-01T03:03:37Z</time>
      </trkpt>
      <trkpt lat="48.80866000" lon="9.125500000">
        <ele>326.00000</ele>
        <time>2010-01-01T03:04:50Z</time>
      </trkpt>
      <trkpt lat="48.80899000" lon="9.126040000">
        <ele>325.00000</ele>
        <time>2010-01-01T03:05:10Z</time>
      </trkpt>
      <trkpt lat="48.80985000" lon="9.127050000">
        <ele>326.00000</ele>
        <time>2010-01-01T03:05:53Z</time>
      </trkpt>
      <trkpt lat="48.81035000" lon="9.128080000">
        <ele>333.00000</ele>
        <time>2010-01-01T03:06:27Z</time>
      </trkpt>
      <trkpt lat="48.81145000" lon="9.128330000">
        <ele>328.00000</ele>
        <time>2010-01-01T03:07:12Z</time>
      </trkpt>
      <trkpt lat="48.81380000" lon="9.127970000">
        <ele>323.00000</ele>
        <time>2010-01-01T03:08:46Z</time>
      </trkpt>
      <trkpt lat="48.81405000" lon="9.128190000">
        <ele>324.00000</ele>
        <time>2010-01-01T03:08:58Z</time>
      </trkpt>
      <trkpt lat="48.81419000" lon="9.128460000">
        <ele>324.00000</ele>
        <time>2010-01-01T03:09:07Z</time>
      </trkpt>
      <trkpt lat="48.81445000" lon="9.128540000">
        <ele>324.00000</ele>
        <time>2010-01-01T03:09:17Z</time>
      </trkpt>
      <trkpt lat="48.81457000" lon="9.128790000">
        <ele>324.00000</ele>
        <time>2010-01-01T03:09:25Z</time>
      </trkpt>
      <trkpt lat="48.81459000" lon="9.129100000">
        <ele>325.00000</ele>
        <time>2010-01-01T03:09:34Z</time>
      </trkpt>
      <trkpt lat="48.81530000" lon="9.127660000">
        <ele>322.00000</ele>
        <time>2010-01-01T03:10:21Z</time>
      </trkpt>
      <trkpt lat="48.81585000" lon="9.126950000">
        <ele>324.00000</ele>
        <time>2010-01-01T03:10:50Z</time>
      </trkpt>
      <trkpt lat="48.81626000" lon="9.127470000">
        <ele>326.00000</ele>
        <time>2010-01-01T03:11:11Z</time>
      </trkpt>
      <trkpt lat="48.81699000" lon="9.127970000">
        <ele>333.00000</ele>
        <time>2010-01-01T03:11:43Z</time>
      </trkpt>
      <trkpt lat="48.81685000" lon="9.128680000">
        <ele>346.00000</ele>
        <time>2010-01-01T03:12:03Z</time>
      </trkpt>
      <trkpt lat="48.81695000" lon="9.129340000">
        <ele>355.00000</ele>
        <time>2010-01-01T03:12:21Z</time>
      </trkpt>
      <trkpt lat="48.81692000" lon="9.129850000">
        <ele>363.00000</ele>
        <time>2010-01-01T03:12:34Z</time>
      </trkpt>
      <trkpt lat="48.81677000" lon="9.130250000">
        <ele>381.00000</ele>
        <time>2010-01-01T03:12:46Z</time>
      </trkpt>
      <trkpt lat="48.81682000" lon="9.131310000">
        <ele>381.00000</ele>
        <time>2010-01-01T03:13:14Z</time>
      </trkpt>
      <trkpt lat="48.81648000" lon="9.132630000">
        <ele>379.00000</ele>
        <time>2010-01-01T03:13:52Z</time>
      </trkpt>
      <trkpt lat="48.81657000" lon="9.134280000">
        <ele>381.00000</ele>
        <time>2010-01-01T03:14:35Z</time>
      </trkpt>
      <trkpt lat="48.81671000" lon="9.135900000">
        <ele>382.00000</ele>
        <time>2010-01-01T03:15:19Z</time>
      </trkpt>
      <trkpt lat="48.81680000" lon="9.136230000">
        <ele>380.00000</ele>
        <time>2010-01-01T03:15:28Z</time>
      </trkpt>
      <trkpt lat="48.81704000" lon="9.136540000">
        <ele>380.00000</ele>
        <time>2010-01-01T03:15:41Z</time>
      </trkpt>
      <trkpt lat="48.81714000" lon="9.136820000">
        <ele>381.00000</ele>
        <time>2010-01-01T03:15:49Z</time>
      </trkpt>
      <trkpt lat="48.81701000" lon="9.138920000">
        <ele>382.00000</ele>
        <time>2010-01-01T03:16:45Z</time>
      </trkpt>
      <trkpt lat="48.81675000" lon="9.139810000">
        <ele>377.00000</ele>
        <time>2010-01-01T03:17:10Z</time>
      </trkpt>
      <trkpt lat="48.81725000" lon="9.141650000">
        <ele>373.00000</ele>
        <time>2010-01-01T03:18:03Z</time>
      </trkpt>
      <trkpt lat="48.81730000" lon="9.142650000">
        <ele>366.00000</ele>
        <time>2010-01-01T03:18:29Z</time>
      </trkpt>
      <trkpt lat="48.81712000" lon="9.143110000">
        <ele>363.00000</ele>
        <time>2010-01-01T03:18:43Z</time>
      </trkpt>
      <trkpt lat="48.81704000" lon="9.143630000">
        <ele>361.00000</ele>
        <time>2010-01-01T03:18:57Z</time>
      </trkpt>
      <trkpt lat="48.81711000" lon="9.144340000">
        <ele>359.00000</ele>
        <time>2010-01-01T03:19:16Z</time>
      </trkpt>
      <trkpt lat="48.81731000" lon="9.145120000">
        <ele>358.00000</ele>
        <time>2010-01-01T03:19:38Z</time>
      </trkpt>
      <trkpt lat="48.81726000" lon="9.145950000">
        <ele>354.00000</ele>
        <time>2010-01-01T03:20:00Z</time>
      </trkpt>
      <trkpt lat="48.81776000" lon="9.148280000">
        <ele>348.00000</ele>
        <time>2010-01-01T03:21:05Z</time>
      </trkpt>
      <trkpt lat="48.81802000" lon="9.148650000">
        <ele>348.00000</ele>
        <time>2010-01-01T03:21:19Z</time>
      </trkpt>
      <trkpt lat="48.81875000" lon="9.149060000">
        <ele>346.00000</ele>
        <time>2010-01-01T03:21:50Z</time>
      </trkpt>
      <trkpt lat="48.81915000" lon="9.149890000">
        <ele>341.00000</ele>
        <time>2010-01-01T03:22:17Z</time>
      </trkpt>
      <trkpt lat="48.81937000" lon="9.150750000">
        <ele>336.00000</ele>
        <time>2010-01-01T03:22:42Z</time>
      </trkpt>
      <trkpt lat="48.81980000" lon="9.150990000">
        <ele>333.00000</ele>
        <time>2010-01-01T03:23:00Z</time>
      </trkpt>
      <trkpt lat="48.82185000" lon="9.151320000">
        <ele>303.00000</ele>
        <time>2010-01-01T03:24:23Z</time>
      </trkpt>
      <trkpt lat="48.82205000" lon="9.152380000">
        <ele>301.00000</ele>
        <time>2010-01-01T03:24:52Z</time>
      </trkpt>
      <trkpt lat="48.82205000" lon="9.155080000">
        <ele>300.00000</ele>
        <time>2010-01-01T03:26:03Z</time>
      </trkpt>
      <trkpt lat="48.82286000" lon="9.155160000">
        <ele>289.00000</ele>
        <time>2010-01-01T03:26:35Z</time>
      </trkpt>
      <trkpt lat="48.82315000" lon="9.156000000">
        <ele>288.00000</ele>
        <time>2010-01-01T03:27:00Z</time>
      </trkpt>
      <trkpt lat="48.82344000" lon="9.156310000">
        <ele>286.00000</ele>
        <time>2010-01-01T03:27:14Z</time>
      </trkpt>
      <trkpt lat="48.82395000" lon="9.156620000">
        <ele>284.00000</ele>
        <time>2010-01-01T03:27:36Z</time>
      </trkpt>
      <trkpt lat="48.82443000" lon="9.157060000">
        <ele>285.00000</ele>
        <time>2010-01-01T03:27:59Z</time>
      </trkpt>
      <trkpt lat="48.82433000" lon="9.158790000">
        <ele>293.00000</ele>
        <time>2010-01-01T03:28:45Z</time>
      </trkpt>
      <trkpt lat="48.82458000" lon="9.160220000">
        <ele>303.00000</ele>
        <time>2010-01-01T03:29:24Z</time>
      </trkpt>
      <trkpt lat="48.82513000" lon="9.161050000">
        <ele>303.00000</ele>
        <time>2010-01-01T03:29:55Z</time>
      </trkpt>
      <trkpt lat="48.82528000" lon="9.161470000">
        <ele>304.00000</ele>
        <time>2010-01-01T03:30:07Z</time>
      </trkpt>
      <trkpt lat="48.82558000" lon="9.163170000">
        <ele>300.00000</ele>
        <time>2010-01-01T03:30:54Z</time>
      </trkpt>
      <trkpt lat="48.82602000" lon="9.164130000">
        <ele>298.00000</ele>
        <time>2010-01-01T03:31:25Z</time>
      </trkpt>
      <trkpt lat="48.82665000" lon="9.165150000">
        <ele>296.00000</ele>
        <time>2010-01-01T03:32:01Z</time>
      </trkpt>
      <trkpt lat="48.82691000" lon="9.166820000">
        <ele>291.00000</ele>
        <time>2010-01-01T03:32:47Z</time>
      </trkpt>
      <trkpt lat="48.82712000" lon="9.167470000">
        <ele>288.00000</ele>
        <time>2010-01-01T03:33:06Z</time>
      </trkpt>
      <trkpt lat="48.82576000" lon="9.168750000">
        <ele>278.00000</ele>
        <time>2010-01-01T03:34:10Z</time>
      </trkpt>
      <trkpt lat="48.82587000" lon="9.171110000">
        <ele>272.00000</ele>
        <time>2010-01-01T03:35:12Z</time>
      </trkpt>
      <trkpt lat="48.82566000" lon="9.173300000">
        <ele>269.00000</ele>
        <time>2010-01-01T03:36:10Z</time>
      </trkpt>
      <trkpt lat="48.82538000" lon="9.173590000">
        <ele>269.00000</ele>
        <time>2010-01-01T03:36:24Z</time>
      </trkpt>
      <trkpt lat="48.82537000" lon="9.175040000">
        <ele>263.00000</ele>
        <time>2010-01-01T03:37:02Z</time>
      </trkpt>
      <trkpt lat="48.82520000" lon="9.175900000">
        <ele>262.00000</ele>
        <time>2010-01-01T03:37:26Z</time>
      </trkpt>
      <trkpt lat="48.82561000" lon="9.176360000">
        <ele>261.00000</ele>
        <time>2010-01-01T03:37:46Z</time>
      </trkpt>
      <trkpt lat="48.82554000" lon="9.176760000">
        <ele>260.00000</ele>
        <time>2010-01-01T03:37:57Z</time>
      </trkpt>
      <trkpt lat="48.82492000" lon="9.176110000">
        <ele>264.00000</ele>
        <time>2010-01-01T03:38:27Z</time>
      </trkpt>
      <trkpt lat="48.82480000" lon="9.176320000">
        <ele>270.00000</ele>
        <time>2010-01-01T03:38:35Z</time>
      </trkpt>
      <trkpt lat="48.82382000" lon="9.176330000">
        <ele>282.00000</ele>
        <time>2010-01-01T03:39:14Z</time>
      </trkpt>
      <trkpt lat="48.82333000" lon="9.177170000">
        <ele>285.00000</ele>
        <time>2010-01-01T03:39:43Z</time>
      </trkpt>
      <trkpt lat="48.82337000" lon="9.177630000">
        <ele>297.00000</ele>
        <time>2010-01-01T03:39:56Z</time>
      </trkpt>
      <trkpt lat="48.82375000" lon="9.178710000">
        <ele>314.00000</ele>
        <time>2010-01-01T03:40:28Z</time>
      </trkpt>
      <trkpt lat="48.82044000" lon="9.180520000">
        <ele>330.00000</ele>
        <time>2010-01-01T03:42:49Z</time>
      </trkpt>
      <trkpt lat="48.81883000" lon="9.183610000">
        <ele>330.00000</ele>
        <time>2010-01-01T03:44:33Z</time>
      </trkpt>
      <trkpt lat="48.81840000" lon="9.184140000">
        <ele>333.00000</ele>
        <time>2010-01-01T03:44:55Z</time>
      </trkpt>
      <trkpt lat="48.81720000" lon="9.185220000">
        <ele>324.00000</ele>
        <time>2010-01-01T03:45:51Z</time>
      </trkpt>
      <trkpt lat="48.81639000" lon="9.185170000">
        <ele>330.00000</ele>
        <time>2010-01-01T03:46:23Z</time>
      </trkpt>
      <trkpt lat="48.81586000" lon="9.185900000">
        <ele>333.00000</ele>
        <time>2010-01-01T03:46:52Z</time>
      </trkpt>
      <trkpt lat="48.81502000" lon="9.184930000">
        <ele>343.00000</ele>
        <time>2010-01-01T03:47:34Z</time>
      </trkpt>
      <trkpt lat="48.81501000" lon="9.183500000">
        <ele>340.00000</ele>
        <time>2010-01-01T03:48:12Z</time>
      </trkpt>
      <trkpt lat="48.81477000" lon="9.183410000">
        <ele>341.00000</ele>
        <time>2010-01-01T03:48:22Z</time>
      </trkpt>
      <trkpt lat="48.81471000" lon="9.183210000">
        <ele>340.00000</ele>
        <time>2010-01-01T03:48:27Z</time>
      </trkpt>
      <trkpt lat="48.81453000" lon="9.183060000">
        <ele>340.00000</ele>
        <time>2010-01-01T03:48:36Z</time>
      </trkpt>
      <trkpt lat="48.81435000" lon="9.183060000">
        <ele>338.00000</ele>
        <time>2010-01-01T03:48:43Z</time>
      </trkpt>
      <trkpt lat="48.81362000" lon="9.184010000">
        <ele>343.00000</ele>
        <time>2010-01-01T03:49:21Z</time>
      </trkpt>
      <trkpt lat="48.81210000" lon="9.185030000">
        <ele>353.00000</ele>
        <time>2010-01-01T03:50:28Z</time>
      </trkpt>
      <trkpt lat="48.81176000" lon="9.185830000">
        <ele>350.00000</ele>
        <time>2010-01-01T03:50:53Z</time>
      </trkpt>
      <trkpt lat="48.81165000" lon="9.187500000">
        <ele>347.00000</ele>
        <time>2010-01-01T03:51:37Z</time>
      </trkpt>
      <trkpt lat="48.81187000" lon="9.187560000">
        <ele>349.00000</ele>
        <time>2010-01-01T03:51:46Z</time>
      </trkpt>
      <trkpt lat="48.81201000" lon="9.187890000">
        <ele>354.00000</ele>
        <time>2010-01-01T03:51:56Z</time>
      </trkpt>
      <trkpt lat="48.81238000" lon="9.189710000">
        <ele>347.00000</ele>
        <time>2010-01-01T03:52:47Z</time>
      </trkpt>
      <trkpt lat="48.81295000" lon="9.189340000">
        <ele>344.00000</ele>
        <time>2010-01-01T03:53:11Z</time>
      </trkpt>
      <trkpt lat="48.81304000" lon="9.189410000">
        <ele>341.00000</ele>
        <time>2010-01-01T03:53:16Z</time>
      </trkpt>
      <trkpt lat="48.81343000" lon="9.189090000">
        <ele>342.00000</ele>
        <time>2010-01-01T03:53:33Z</time>
      </trkpt>
      <trkpt lat="48.81384000" lon="9.189090000">
        <ele>335.00000</ele>
        <time>2010-01-01T03:53:50Z</time>
      </trkpt>
      <trkpt lat="48.81393000" lon="9.188740000">
        <ele>339.00000</ele>
        <time>2010-01-01T03:54:00Z</time>
      </trkpt>
      <trkpt lat="48.81447000" lon="9.188460000">
        <ele>335.00000</ele>
        <time>2010-01-01T03:54:22Z</time>
      </trkpt>
      <trkpt lat="48.81602000" lon="9.188290000">
        <ele>339.00000</ele>
        <time>2010-01-01T03:55:25Z</time>
      </trkpt>
      <trkpt lat="48.81583000" lon="9.188640000">
        <ele>339.00000</ele>
        <time>2010-01-01T03:55:37Z</time>
      </trkpt>
      <trkpt lat="48.81608000" lon="9.189010000">
        <ele>342.00000</ele>
        <time>2010-01-01T03:55:51Z</time>
      </trkpt>
      <trkpt lat="48.81669000" lon="9.190380000">
        <ele>347.00000</ele>
        <time>2010-01-01T03:56:34Z</time>
      </trkpt>
      <trkpt lat="48.81696000" lon="9.192010000">
        <ele>347.00000</ele>
        <time>2010-01-01T03:57:18Z</time>
      </trkpt>
      <trkpt lat="48.81750000" lon="9.193160000">
        <ele>345.00000</ele>
        <time>2010-01-01T03:57:56Z</time>
      </trkpt>
      <trkpt lat="48.81787000" lon="9.192850000">
        <ele>354.00000</ele>
        <time>2010-01-01T03:58:13Z</time>
      </trkpt>
      <trkpt lat="48.81847000" lon="9.194160000">
        <ele>357.00000</ele>
        <time>2010-01-01T03:58:55Z</time>
      </trkpt>
      <trkpt lat="48.81867000" lon="9.195160000">
        <ele>356.00000</ele>
        <time>2010-01-01T03:59:22Z</time>
      </trkpt>
      <trkpt lat="48.81910000" lon="9.195550000">
        <ele>357.00000</ele>
        <time>2010-01-01T03:59:42Z</time>
      </trkpt>
      <trkpt lat="48.81963000" lon="9.196590000">
        <ele>352.00000</ele>
        <time>2010-01-01T04:00:17Z</time>
      </trkpt>
      <trkpt lat="48.82216000" lon="9.198570000">
        <ele>330.00000</ele>
        <time>2010-01-01T04:02:11Z</time>
      </trkpt>
      <trkpt lat="48.82212000" lon="9.199060000">
        <ele>321.00000</ele>
        <time>2010-01-01T04:02:24Z</time>
      </trkpt>
      <trkpt lat="48.82251000" lon="9.198870000">
        <ele>321.00000</ele>
        <time>2010-01-01T04:02:40Z</time>
      </trkpt>
      <trkpt lat="48.82393000" lon="9.197250000">
        <ele>326.00000</ele>
        <time>2010-01-01T04:03:51Z</time>
      </trkpt>
      <trkpt lat="48.82434000" lon="9.197150000">
        <ele>324.00000</ele>
        <time>2010-01-01T04:04:08Z</time>
      </trkpt>
      <trkpt lat="48.82489000" lon="9.196530000">
        <ele>322.00000</ele>
        <time>2010-01-01T04:04:35Z</time>
      </trkpt>
      <trkpt lat="48.82504000" lon="9.196750000">
        <ele>322.00000</ele>
        <time>2010-01-01T04:04:44Z</time>
      </trkpt>
      <trkpt lat="48.82498000" lon="9.197300000">
        <ele>322.00000</ele>
        <time>2010-01-01T04:04:58Z</time>
      </trkpt>
      <trkpt lat="48.82528000" lon="9.197450000">
        <ele>322.00000</ele>
        <time>2010-01-01T04:05:11Z</time>
      </trkpt>
      <trkpt lat="48.82721000" lon="9.199510000">
        <ele>313.00000</ele>
        <time>2010-01-01T04:06:45Z</time>
      </trkpt>
      <trkpt lat="48.82812000" lon="9.200960000">
        <ele>314.00000</ele>
        <time>2010-01-01T04:07:38Z</time>
      </trkpt>
      <trkpt lat="48.82876000" lon="9.202480000">
        <ele>303.00000</ele>
        <time>2010-01-01T04:08:26Z</time>
      </trkpt>
      <trkpt lat="48.82886000" lon="9.202890000">
        <ele>302.00000</ele>
        <time>2010-01-01T04:08:37Z</time>
      </trkpt>
      <trkpt lat="48.82927000" lon="9.203060000">
        <ele>295.00000</ele>
        <time>2010-01-01T04:08:54Z</time>
      </trkpt>
      <trkpt lat="48.82896000" lon="9.203210000">
        <ele>300.00000</ele>
        <time>2010-01-01T04:09:07Z</time>
      </trkpt>
      <trkpt lat="48.82826000" lon="9.206710000">
        <ele>265.00000</ele>
        <time>2010-01-01T04:10:44Z</time>
      </trkpt>
      <trkpt lat="48.82689000" lon="9.207930000">
        <ele>222.00000</ele>
        <time>2010-01-01T04:11:47Z</time>
      </trkpt>
      <trkpt lat="48.82635000" lon="9.208760000">
        <ele>218.00000</ele>
        <time>2010-01-01T04:12:18Z</time>
      </trkpt>
      <trkpt lat="48.82647000" lon="9.208990000">
        <ele>216.00000</ele>
        <time>2010-01-01T04:12:26Z</time>
      </trkpt>
      <trkpt lat="48.82612000" lon="9.210320000">
        <ele>218.00000</ele>
        <time>2010-01-01T04:13:04Z</time>
      </trkpt>
      <trkpt lat="48.82604000" lon="9.211360000">
        <ele>213.00000</ele>
        <time>2010-01-01T04:13:31Z</time>
      </trkpt>
      <trkpt lat="48.82583000" lon="9.211260000">
        <ele>217.00000</ele>
        <time>2010-01-01T04:13:40Z</time>
      </trkpt>
      <trkpt lat="48.82575000" lon="9.211030000">
        <ele>223.00000</ele>
        <time>2010-01-01T04:13:47Z</time>
      </trkpt>
      <trkpt lat="48.82580000" lon="9.210810000">
        <ele>222.00000</ele>
        <time>2010-01-01T04:13:53Z</time>
      </trkpt>
      <trkpt lat="48.82603000" lon="9.210720000">
        <ele>223.00000</ele>
        <time>2010-01-01T04:14:02Z</time>
      </trkpt>
      <trkpt lat="48.82690000" lon="9.210970000">
        <ele>217.00000</ele>
        <time>2010-01-01T04:14:38Z</time>
      </trkpt>
      <trkpt lat="48.82720000" lon="9.213820000">
        <ele>214.00000</ele>
        <time>2010-01-01T04:15:54Z</time>
      </trkpt>
      <trkpt lat="48.82719000" lon="9.215730000">
        <ele>216.00000</ele>
        <time>2010-01-01T04:16:44Z</time>
      </trkpt>
      <trkpt lat="48.82695000" lon="9.217800000">
        <ele>217.00000</ele>
        <time>2010-01-01T04:17:40Z</time>
      </trkpt>
      <trkpt lat="48.82706000" lon="9.218310000">
        <ele>219.00000</ele>
        <time>2010-01-01T04:17:54Z</time>
      </trkpt>
      <trkpt lat="48.82744000" lon="9.218410000">
        <ele>227.00000</ele>
        <time>2010-01-01T04:18:09Z</time>
      </trkpt>
      <trkpt lat="48.82798000" lon="9.217310000">
        <ele>231.00000</ele>
        <time>2010-01-01T04:18:45Z</time>
      </trkpt>
      <trkpt lat="48.82833000" lon="9.217590000">
        <ele>236.00000</ele>
        <time>2010-01-01T04:19:01Z</time>
      </trkpt>
      <trkpt lat="48.82768000" lon="9.219450000">
        <ele>243.00000</ele>
        <time>2010-01-01T04:19:57Z</time>
      </trkpt>
      <trkpt lat="48.82710000" lon="9.222660000">
        <ele>268.00000</ele>
        <time>2010-01-01T04:21:25Z</time>
      </trkpt>
      <trkpt lat="48.82680000" lon="9.222730000">
        <ele>269.00000</ele>
        <time>2010-01-01T04:21:37Z</time>
      </trkpt>
      <trkpt lat="48.82551000" lon="9.226560000">
        <ele>281.00000</ele>
        <time>2010-01-01T04:23:30Z</time>
      </trkpt>
      <trkpt lat="48.82545000" lon="9.232220000">
        <ele>288.00000</ele>
        <time>2010-01-01T04:25:59Z</time>
      </trkpt>
      <trkpt lat="48.82358000" lon="9.232290000">
        <ele>271.00000</ele>
        <time>2010-01-01T04:27:14Z</time>
      </trkpt>
      <trkpt lat="48.82347000" lon="9.230220000">
        <ele>261.00000</ele>
        <time>2010-01-01T04:28:09Z</time>
      </trkpt>
      <trkpt lat="48.82230000" lon="9.230110000">
        <ele>270.00000</ele>
        <time>2010-01-01T04:28:56Z</time>
      </trkpt>
      <trkpt lat="48.82215000" lon="9.229480000">
        <ele>269.00000</ele>
        <time>2010-01-01T04:29:13Z</time>
      </trkpt>
      <trkpt lat="48.82165000" lon="9.229670000">
        <ele>273.00000</ele>
        <time>2010-01-01T04:29:34Z</time>
      </trkpt>
      <trkpt lat="48.82130000" lon="9.229520000">
        <ele>268.00000</ele>
        <time>2010-01-01T04:29:49Z</time>
      </trkpt>
      <trkpt lat="48.81995000" lon="9.229910000">
        <ele>264.00000</ele>
        <time>2010-01-01T04:30:44Z</time>
      </trkpt>
      <trkpt lat="48.81947000" lon="9.230410000">
        <ele>264.00000</ele>
        <time>2010-01-01T04:31:07Z</time>
      </trkpt>
      <trkpt lat="48.81891000" lon="9.230810000">
        <ele>269.00000</ele>
        <time>2010-01-01T04:31:32Z</time>
      </trkpt>
      <trkpt lat="48.81704000" lon="9.231300000">
        <ele>274.00000</ele>
        <time>2010-01-01T04:32:48Z</time>
      </trkpt>
      <trkpt lat="48.81653000" lon="9.231990000">
        <ele>271.00000</ele>
        <time>2010-01-01T04:33:15Z</time>
      </trkpt>
      <trkpt lat="48.81630000" lon="9.232830000">
        <ele>275.00000</ele>
        <time>2010-01-01T04:33:39Z</time>
      </trkpt>
      <trkpt lat="48.81637000" lon="9.234180000">
        <ele>278.00000</ele>
        <time>2010-01-01T04:34:15Z</time>
      </trkpt>
      <trkpt lat="48.81571000" lon="9.234460000">
        <ele>270.00000</ele>
        <time>2010-01-01T04:34:42Z</time>
      </trkpt>
      <trkpt lat="48.81549000" lon="9.234670000">
        <ele>267.00000</ele>
        <time>2010-01-01T04:34:53Z</time>
      </trkpt>
      <trkpt lat="48.81540000" lon="9.235020000">
        <ele>259.00000</ele>
        <time>2010-01-01T04:35:02Z</time>
      </trkpt>
      <trkpt lat="48.81530000" lon="9.234780000">
        <ele>259.00000</ele>
        <time>2010-01-01T04:35:10Z</time>
      </trkpt>
      <trkpt lat="48.81480000" lon="9.234770000">
        <ele>246.00000</ele>
        <time>2010-01-01T04:35:30Z</time>
      </trkpt>
      <trkpt lat="48.81431000" lon="9.233650000">
        <ele>242.00000</ele>
        <time>2010-01-01T04:36:05Z</time>
      </trkpt>
      <trkpt lat="48.81394000" lon="9.233950000">
        <ele>246.00000</ele>
        <time>2010-01-01T04:36:22Z</time>
      </trkpt>
      <trkpt lat="48.81244000" lon="9.233770000">
        <ele>248.00000</ele>
        <time>2010-01-01T04:37:22Z</time>
      </trkpt>
      <trkpt lat="48.81208000" lon="9.234600000">
        <ele>256.00000</ele>
        <time>2010-01-01T04:37:49Z</time>
      </trkpt>
      <trkpt lat="48.81255000" lon="9.237100000">
        <ele>255.00000</ele>
        <time>2010-01-01T04:38:57Z</time>
      </trkpt>
      <trkpt lat="48.81267000" lon="9.238220000">
        <ele>256.00000</ele>
        <time>2010-01-01T04:39:27Z</time>
      </trkpt>
      <trkpt lat="48.81266000" lon="9.239370000">
        <ele>259.00000</ele>
        <time>2010-01-01T04:39:57Z</time>
      </trkpt>
      <trkpt lat="48.81274000" lon="9.240350000">
        <ele>264.00000</ele>
        <time>2010-01-01T04:40:23Z</time>
      </trkpt>
      <trkpt lat="48.81300000" lon="9.241880000">
        <ele>266.00000</ele>
        <time>2010-01-01T04:41:05Z</time>
      </trkpt>
      <trkpt lat="48.81023000" lon="9.243230000">
        <ele>287.00000</ele>
        <time>2010-01-01T04:43:01Z</time>
      </trkpt>
      <trkpt lat="48.80886000" lon="9.243290000">
        <ele>278.00000</ele>
        <time>2010-01-01T04:43:56Z</time>
      </trkpt>
      <trkpt lat="48.80903000" lon="9.244690000">
        <ele>277.00000</ele>
        <time>2010-01-01T04:44:34Z</time>
      </trkpt>
      <trkpt lat="48.80605000" lon="9.245830000">
        <ele>294.00000</ele>
        <time>2010-01-01T04:46:37Z</time>
      </trkpt>
      <trkpt lat="48.80554000" lon="9.246310000">
        <ele>289.00000</ele>
        <time>2010-01-01T04:47:01Z</time>
      </trkpt>
      <trkpt lat="48.80510000" lon="9.246400000">
        <ele>285.00000</ele>
        <time>2010-01-01T04:47:19Z</time>
      </trkpt>
      <trkpt lat="48.80528000" lon="9.247760000">
        <ele>287.00000</ele>
        <time>2010-01-01T04:47:55Z</time>
      </trkpt>
      <trkpt lat="48.80497000" lon="9.247680000">
        <ele>285.00000</ele>
        <time>2010-01-01T04:48:08Z</time>
      </trkpt>
      <trkpt lat="48.80477000" lon="9.247760000">
        <ele>284.00000</ele>
        <time>2010-01-01T04:48:16Z</time>
      </trkpt>
      <trkpt lat="48.80401000" lon="9.248840000">
        <ele>279.00000</ele>
        <time>2010-01-01T04:48:58Z</time>
      </trkpt>
      <trkpt lat="48.80335000" lon="9.249140000">
        <ele>276.00000</ele>
        <time>2010-01-01T04:49:25Z</time>
      </trkpt>
      <trkpt lat="48.80326000" lon="9.248840000">
        <ele>275.00000</ele>
        <time>2010-01-01T04:49:34Z</time>
      </trkpt>
      <trkpt lat="48.80307000" lon="9.248970000">
        <ele>276.00000</ele>
        <time>2010-01-01T04:49:42Z</time>
      </trkpt>
      <trkpt lat="48.80299000" lon="9.249550000">
        <ele>276.00000</ele>
        <time>2010-01-01T04:49:58Z</time>
      </trkpt>
      <trkpt lat="48.80218000" lon="9.252130000">
        <ele>293.00000</ele>
        <time>2010-01-01T04:51:13Z</time>
      </trkpt>
      <trkpt lat="48.80236000" lon="9.255370000">
        <ele>306.00000</ele>
        <time>2010-01-01T04:52:39Z</time>
      </trkpt>
      <trkpt lat="48.80206000" lon="9.255880000">
        <ele>314.00000</ele>
        <time>2010-01-01T04:52:57Z</time>
      </trkpt>
      <trkpt lat="48.80141000" lon="9.255680000">
        <ele>315.00000</ele>
        <time>2010-01-01T04:53:24Z</time>
      </trkpt>
      <trkpt lat="48.80103000" lon="9.255740000">
        <ele>316.00000</ele>
        <time>2010-01-01T04:53:39Z</time>
      </trkpt>
      <trkpt lat="48.80087000" lon="9.256150000">
        <ele>314.00000</ele>
        <time>2010-01-01T04:53:52Z</time>
      </trkpt>
      <trkpt lat="48.80070000" lon="9.258320000">
        <ele>309.00000</ele>
        <time>2010-01-01T04:54:49Z</time>
      </trkpt>
      <trkpt lat="48.80096000" lon="9.259280000">
        <ele>308.00000</ele>
        <time>2010-01-01T04:55:17Z</time>
      </trkpt>
      <trkpt lat="48.80112000" lon="9.260230000">
        <ele>308.00000</ele>
        <time>2010-01-01T04:55:42Z</time>
      </trkpt>
      <trkpt lat="48.80117000" lon="9.262920000">
        <ele>306.00000</ele>
        <time>2010-01-01T04:56:53Z</time>
      </trkpt>
      <trkpt lat="48.80095000" lon="9.265680000">
        <ele>307.00000</ele>
        <time>2010-01-01T04:58:07Z</time>
      </trkpt>
      <trkpt lat="48.80082000" lon="9.266410000">
        <ele>307.00000</ele>
        <time>2010-01-01T04:58:27Z</time>
      </trkpt>
      <trkpt lat="48.80106000" lon="9.267230000">
        <ele>308.00000</ele>
        <time>2010-01-01T04:58:50Z</time>
      </trkpt>
      <trkpt lat="48.80105000" lon="9.268030000">
        <ele>310.00000</ele>
        <time>2010-01-01T04:59:11Z</time>
      </trkpt>
      <trkpt lat="48.79902000" lon="9.267880000">
        <ele>315.00000</ele>
        <time>2010-01-01T05:00:33Z</time>
      </trkpt>
      <trkpt lat="48.79855000" lon="9.268310000">
        <ele>315.00000</ele>
        <time>2010-01-01T05:00:55Z</time>
      </trkpt>
      <trkpt lat="48.79725000" lon="9.268740000">
        <ele>326.00000</ele>
        <time>2010-01-01T05:01:48Z</time>
      </trkpt>
      <trkpt lat="48.79601000" lon="9.268750000">
        <ele>326.00000</ele>
        <time>2010-01-01T05:02:38Z</time>
      </trkpt>
      <trkpt lat="48.79558000" lon="9.268510000">
        <ele>324.00000</ele>
        <time>2010-01-01T05:02:56Z</time>
      </trkpt>
      <trkpt lat="48.79528000" lon="9.268470000">
        <ele>324.00000</ele>
        <time>2010-01-01T05:03:08Z</time>
      </trkpt>
      <trkpt lat="48.79495000" lon="9.268660000">
        <ele>325.00000</ele>
        <time>2010-01-01T05:03:22Z</time>
      </trkpt>
      <trkpt lat="48.79344000" lon="9.267940000">
        <ele>317.00000</ele>
        <time>2010-01-01T05:04:25Z</time>
      </trkpt>
      <trkpt lat="48.79249000" lon="9.267830000">
        <ele>302.00000</ele>
        <time>2010-01-01T05:05:04Z</time>
      </trkpt>
      <trkpt lat="48.79211000" lon="9.267890000">
        <ele>297.00000</ele>
        <time>2010-01-01T05:05:19Z</time>
      </trkpt>
      <trkpt lat="48.79146000" lon="9.268470000">
        <ele>292.00000</ele>
        <time>2010-01-01T05:05:49Z</time>
      </trkpt>
      <trkpt lat="48.79082000" lon="9.268400000">
        <ele>289.00000</ele>
        <time>2010-01-01T05:06:15Z</time>
      </trkpt>
      <trkpt lat="48.79005000" lon="9.266120000">
        <ele>281.00000</ele>
        <time>2010-01-01T05:07:22Z</time>
      </trkpt>
      <trkpt lat="48.78947000" lon="9.265600000">
        <ele>280.00000</ele>
        <time>2010-01-01T05:07:49Z</time>
      </trkpt>
      <trkpt lat="48.78884000" lon="9.265610000">
        <ele>280.00000</ele>
        <time>2010-01-01T05:08:15Z</time>
      </trkpt>
      <trkpt lat="48.78774000" lon="9.266070000">
        <ele>286.00000</ele>
        <time>2010-01-01T05:09:00Z</time>
      </trkpt>
      <trkpt lat="48.78599000" lon="9.266080000">
        <ele>291.00000</ele>
        <time>2010-01-01T05:10:10Z</time>
      </trkpt>
      <trkpt lat="48.78492000" lon="9.265520000">
        <ele>294.00000</ele>
        <time>2010-01-01T05:10:56Z</time>
      </trkpt>
      <trkpt lat="48.78416000" lon="9.265400000">
        <ele>298.00000</ele>
        <time>2010-01-01T05:11:26Z</time>
      </trkpt>
      <trkpt lat="48.78325000" lon="9.264930000">
        <ele>311.00000</ele>
        <time>2010-01-01T05:12:05Z</time>
      </trkpt>
      <trkpt lat="48.78261000" lon="9.264370000">
        <ele>323.00000</ele>
        <time>2010-01-01T05:12:34Z</time>
      </trkpt>
      <trkpt lat="48.78225000" lon="9.263830000">
        <ele>322.00000</ele>
        <time>2010-01-01T05:12:54Z</time>
      </trkpt>
      <trkpt lat="48.78153000" lon="9.262260000">
        <ele>332.00000</ele>
        <time>2010-01-01T05:13:45Z</time>
      </trkpt>
    </trkseg>
  </trk>
</gpx>

